Page Field
KFMY : now visible

Airfield :











YOU CAN JOIN US ON...

 
LOGIN :

Register | Disclaimer

   EN    FR    IT 

 









Legend :    VFR   Marginal VFR   IFR   Intensive IFR   Very Intensive IFR
Visi :
Ceiling :
>= 8 km
>= 3000ft
5 to 8 km
1000 to 3000 ft
1500m to 5 km
500 to 1000 ft
800 to 1500m
200 to 500 ft
< 800m
< 200 ft
Symbols :   Thunderstorms  Fog  Heavy snow  Heavy precipitations  Wind > 20 kt






- Airport Elevation : 17 ft


KFMY - Page Field

CURRENT METAR :
  • 101953Z 20011G18KT 10SM CLR 30/21 A2984 RMK AO2 SLP107 T03000211

EXPIRED METARs :
  • 101853Z 22013G19KT 10SM CLR 31/21 A2987 RMK AO2 SLP118 T03060211
  • 101753Z 21011G18KT 10SM CLR 31/21 A2990 RMK AO2 SLP125 T03060206 10306 20194 58012
  • 101653Z 20012G20KT 10SM CLR 29/21 A2991 RMK AO2 SLP131 T02940206

TAF KFMY
Valid from the 10 at 18:00 until the 11 at 18:00 UTC


101740Z 1018/1118 22015G25KT P6SM BKN040 BKN250
FM110200 22012G17KT 5SM SHRA VCTS SCT020CB BKN040 OVC120
FM110500 19012G17KT P6SM VCSH SCT020 OVC040
FM111300 19012G17KT 5SM SHRA VCTS SCT015CB BKN025 OVC040
FM111700 22018G24KT 5SM SHRA VCTS SCT015CB BKN025 OVC040
KZMA FIR / North America



MET'MAP, your aeronautical weather chart ! - Copyright ORBIFLY December 2007 - Disclaimer

ORBIFLY MET'MAP TEAM :

Programming & Development : Alexandra Zaïnal
Concept & original design : Baudouin d'Aumeries
Assistance for programming : Marc-Olivier Méhu
Technical & hardware support : Manuel Goepfert

Contact : metmap@orbifly.com




SOURCES & CREDITS :

   NOAA       Earth
Advisory